sensor_id;sensor_type;location;lat;lon;timestamp;temperature;humidity
11650;DHT22;5881;48.522;7.682;2024-03-23T00:56:08;12.00;1.00
11650;DHT22;5881;48.522;7.682;2024-03-23T00:58:33;11.90;1.00
11650;DHT22;5881;48.522;7.682;2024-03-23T01:00:59;11.70;1.00
11650;DHT22;5881;48.522;7.682;2024-03-23T01:03:24;11.60;1.00
11650;DHT22;5881;48.522;7.682;2024-03-23T01:05:50;11.50;1.00
11650;DHT22;5881;48.522;7.682;2024-03-23T01:08:16;11.40;1.00
11650;DHT22;5881;48.522;7.682;2024-03-23T01:10:41;11.40;1.00
11650;DHT22;5881;48.522;7.682;2024-03-23T01:13:07;11.50;1.00
11650;DHT22;5881;48.522;7.682;2024-03-23T01:15:32;11.60;1.00
11650;DHT22;5881;48.522;7.682;2024-03-23T01:17:58;11.50;1.00
11650;DHT22;5881;48.522;7.682;2024-03-23T01:20:24;11.40;1.00
11650;DHT22;5881;48.522;7.682;2024-03-23T01:22:49;11.20;1.00
11650;DHT22;5881;48.522;7.682;2024-03-23T01:25:15;11.00;1.00
11650;DHT22;5881;48.522;7.682;2024-03-23T01:27:40;11.10;1.00
11650;DHT22;5881;48.522;7.682;2024-03-23T01:30:06;11.10;1.00
11650;DHT22;5881;48.522;7.682;2024-03-23T01:32:33;10.90;1.00
11650;DHT22;5881;48.522;7.682;2024-03-23T01:34:58;10.90;1.80
11650;DHT22;5881;48.522;7.682;2024-03-23T01:37:24;10.90;1.00
11650;DHT22;5881;48.522;7.682;2024-03-23T01:39:49;10.90;1.00
11650;DHT22;5881;48.522;7.682;2024-03-23T01:42:15;10.90;1.00
11650;DHT22;5881;48.522;7.682;2024-03-23T01:44:40;10.90;1.00
11650;DHT22;5881;48.522;7.682;2024-03-23T01:47:06;11.00;1.00
11650;DHT22;5881;48.522;7.682;2024-03-23T01:49:33;11.00;1.00
11650;DHT22;5881;48.522;7.682;2024-03-23T01:51:58;11.10;1.00
11650;DHT22;5881;48.522;7.682;2024-03-23T01:54:25;11.00;1.00
11650;DHT22;5881;48.522;7.682;2024-03-23T01:56:51;11.00;1.00
11650;DHT22;5881;48.522;7.682;2024-03-23T01:59:16;10.90;1.00
11650;DHT22;5881;48.522;7.682;2024-03-23T02:01:42;10.90;7.40
11650;DHT22;5881;48.522;7.682;2024-03-23T02:04:08;11.10;5.20
11650;DHT22;5881;48.522;7.682;2024-03-23T02:06:35;11.20;2.30
11650;DHT22;5881;48.522;7.682;2024-03-23T02:09:00;11.20;1.00
11650;DHT22;5881;48.522;7.682;2024-03-23T02:11:26;11.30;1.00
11650;DHT22;5881;48.522;7.682;2024-03-23T02:13:52;11.40;1.00
11650;DHT22;5881;48.522;7.682;2024-03-23T02:16:17;11.30;1.00
11650;DHT22;5881;48.522;7.682;2024-03-23T02:18:43;11.30;1.00
11650;DHT22;5881;48.522;7.682;2024-03-23T02:21:08;11.30;1.00
11650;DHT22;5881;48.522;7.682;2024-03-23T02:23:34;11.40;1.00
11650;DHT22;5881;48.522;7.682;2024-03-23T02:26:00;11.40;1.00
11650;DHT22;5881;48.522;7.682;2024-03-23T02:28:25;11.50;1.00
11650;DHT22;5881;48.522;7.682;2024-03-23T02:30:51;11.50;1.00
11650;DHT22;5881;48.522;7.682;2024-03-23T02:33:17;11.60;1.00
11650;DHT22;5881;48.522;7.682;2024-03-23T02:35:47;11.60;1.00
11650;DHT22;5881;48.522;7.682;2024-03-23T02:38:12;11.40;1.00
11650;DHT22;5881;48.522;7.682;2024-03-23T02:40:38;11.40;1.00
11650;DHT22;5881;48.522;7.682;2024-03-23T02:43:04;11.30;1.00
11650;DHT22;5881;48.522;7.682;2024-03-23T02:45:30;11.30;1.00
11650;DHT22;5881;48.522;7.682;2024-03-23T02:47:56;11.30;1.00
11650;DHT22;5881;48.522;7.682;2024-03-23T02:50:22;11.20;1.00
11650;DHT22;5881;48.522;7.682;2024-03-23T02:52:48;11.20;1.30
11650;DHT22;5881;48.522;7.682;2024-03-23T02:55:14;11.20;4.00
11650;DHT22;5881;48.522;7.682;2024-03-23T02:57:40;11.20;3.50
11650;DHT22;5881;48.522;7.682;2024-03-23T03:00:06;11.30;4.60
11650;DHT22;5881;48.522;7.682;2024-03-23T03:02:33;11.40;9.50
11650;DHT22;5881;48.522;7.682;2024-03-23T03:04:58;11.30;2.40
11650;DHT22;5881;48.522;7.682;2024-03-23T03:07:24;11.40;7.60
11650;DHT22;5881;48.522;7.682;2024-03-23T03:09:50;11.30;7.40
11650;DHT22;5881;48.522;7.682;2024-03-23T03:12:15;11.30;35.30
11650;DHT22;5881;48.522;7.682;2024-03-23T03:14:41;11.20;93.30
11650;DHT22;5881;48.522;7.682;2024-03-23T03:17:06;11.30;99.90
11650;DHT22;5881;48.522;7.682;2024-03-23T03:19:32;11.50;99.90
11650;DHT22;5881;48.522;7.682;2024-03-23T03:21:58;11.70;99.90
11650;DHT22;5881;48.522;7.682;2024-03-23T03:24:23;11.70;99.90
11650;DHT22;5881;48.522;7.682;2024-03-23T03:26:49;11.70;99.90
11650;DHT22;5881;48.522;7.682;2024-03-23T03:29:15;11.60;99.90
11650;DHT22;5881;48.522;7.682;2024-03-23T03:31:41;11.60;99.90
11650;DHT22;5881;48.522;7.682;2024-03-23T03:34:07;11.60;99.90
11650;DHT22;5881;48.522;7.682;2024-03-23T03:36:33;11.60;99.90
11650;DHT22;5881;48.522;7.682;2024-03-23T03:38:58;11.60;99.90
11650;DHT22;5881;48.522;7.682;2024-03-23T03:41:24;11.70;99.90
11650;DHT22;5881;48.522;7.682;2024-03-23T03:43:50;11.90;99.90
11650;DHT22;5881;48.522;7.682;2024-03-23T03:46:15;12.00;99.90
11650;DHT22;5881;48.522;7.682;2024-03-23T03:48:44;12.00;99.90
11650;DHT22;5881;48.522;7.682;2024-03-23T03:51:14;11.90;99.90
11650;DHT22;5881;48.522;7.682;2024-03-23T03:53:40;11.80;99.90
11650;DHT22;5881;48.522;7.682;2024-03-23T03:56:06;11.80;99.90
11650;DHT22;5881;48.522;7.682;2024-03-23T03:58:32;11.70;99.90
11650;DHT22;5881;48.522;7.682;2024-03-23T04:00:57;11.70;99.90
11650;DHT22;5881;48.522;7.682;2024-03-23T04:03:23;11.60;99.90
11650;DHT22;5881;48.522;7.682;2024-03-23T04:05:53;11.60;99.90
11650;DHT22;5881;48.522;7.682;2024-03-23T04:08:19;11.50;99.90
11650;DHT22;5881;48.522;7.682;2024-03-23T04:10:45;11.40;99.90
11650;DHT22;5881;48.522;7.682;2024-03-23T04:13:11;11.40;99.90
11650;DHT22;5881;48.522;7.682;2024-03-23T04:15:37;11.30;99.90
11650;DHT22;5881;48.522;7.682;2024-03-23T04:18:03;11.30;99.90
11650;DHT22;5881;48.522;7.682;2024-03-23T04:20:28;11.30;99.90
11650;DHT22;5881;48.522;7.682;2024-03-23T04:22:54;11.20;99.90
11650;DHT22;5881;48.522;7.682;2024-03-23T04:25:20;11.20;99.90
11650;DHT22;5881;48.522;7.682;2024-03-23T04:27:45;11.10;99.90
11650;DHT22;5881;48.522;7.682;2024-03-23T04:30:12;11.10;99.90
11650;DHT22;5881;48.522;7.682;2024-03-23T04:32:38;11.00;99.90
11650;DHT22;5881;48.522;7.682;2024-03-23T04:35:04;11.00;99.90
11650;DHT22;5881;48.522;7.682;2024-03-23T04:37:35;10.90;99.90
11650;DHT22;5881;48.522;7.682;2024-03-23T04:40:01;10.80;99.90
11650;DHT22;5881;48.522;7.682;2024-03-23T04:42:27;10.80;99.90
11650;DHT22;5881;48.522;7.682;2024-03-23T04:44:53;10.80;99.90
11650;DHT22;5881;48.522;7.682;2024-03-23T04:47:18;10.90;99.90
11650;DHT22;5881;48.522;7.682;2024-03-23T04:49:44;10.80;99.90
11650;DHT22;5881;48.522;7.682;2024-03-23T04:52:09;10.80;99.90
11650;DHT22;5881;48.522;7.682;2024-03-23T04:54:35;10.80;99.90
11650;DHT22;5881;48.522;7.682;2024-03-23T04:57:01;10.80;99.90
11650;DHT22;5881;48.522;7.682;2024-03-23T04:59:26;10.70;99.90
11650;DHT22;5881;48.522;7.682;2024-03-23T05:01:52;10.60;99.90
11650;DHT22;5881;48.522;7.682;2024-03-23T05:04:17;10.50;99.90
11650;DHT22;5881;48.522;7.682;2024-03-23T05:06:43;10.40;99.90
11650;DHT22;5881;48.522;7.682;2024-03-23T05:09:09;10.40;99.90
11650;DHT22;5881;48.522;7.682;2024-03-23T05:11:38;10.40;99.90
11650;DHT22;5881;48.522;7.682;2024-03-23T05:14:04;10.30;95.60
11650;DHT22;5881;48.522;7.682;2024-03-23T05:16:29;10.30;92.50
11650;DHT22;5881;48.522;7.682;2024-03-23T05:18:55;10.30;94.50
11650;DHT22;5881;48.522;7.682;2024-03-23T05:21:20;10.20;90.10
11650;DHT22;5881;48.522;7.682;2024-03-23T05:23:46;10.20;51.00
11650;DHT22;5881;48.522;7.682;2024-03-23T05:26:13;10.20;48.50
11650;DHT22;5881;48.522;7.682;2024-03-23T05:28:39;10.10;63.50
11650;DHT22;5881;48.522;7.682;2024-03-23T05:31:04;9.90;82.10
11650;DHT22;5881;48.522;7.682;2024-03-23T05:33:30;9.90;59.80
11650;DHT22;5881;48.522;7.682;2024-03-23T05:36:00;9.90;80.20
11650;DHT22;5881;48.522;7.682;2024-03-23T05:38:26;9.70;95.60
11650;DHT22;5881;48.522;7.682;2024-03-23T05:40:58;9.60;96.30
11650;DHT22;5881;48.522;7.682;2024-03-23T05:43:27;9.60;91.50
11650;DHT22;5881;48.522;7.682;2024-03-23T05:45:58;9.50;95.20
11650;DHT22;5881;48.522;7.682;2024-03-23T05:48:24;9.50;99.90
11650;DHT22;5881;48.522;7.682;2024-03-23T05:50:50;9.50;99.70
11650;DHT22;5881;48.522;7.682;2024-03-23T05:53:16;9.50;99.90
11650;DHT22;5881;48.522;7.682;2024-03-23T05:55:43;9.40;99.90
11650;DHT22;5881;48.522;7.682;2024-03-23T05:58:08;9.40;99.90
11650;DHT22;5881;48.522;7.682;2024-03-23T06:00:34;9.40;99.90
11650;DHT22;5881;48.522;7.682;2024-03-23T06:03:00;9.40;99.90
11650;DHT22;5881;48.522;7.682;2024-03-23T06:05:26;9.40;99.90
11650;DHT22;5881;48.522;7.682;2024-03-23T06:07:51;9.40;99.90
11650;DHT22;5881;48.522;7.682;2024-03-23T06:10:18;9.50;99.90
11650;DHT22;5881;48.522;7.682;2024-03-23T06:12:43;9.60;99.90
11650;DHT22;5881;48.522;7.682;2024-03-23T06:15:11;9.50;99.90
11650;DHT22;5881;48.522;7.682;2024-03-23T06:17:37;9.60;99.90
11650;DHT22;5881;48.522;7.682;2024-03-23T06:20:03;9.50;99.90
11650;DHT22;5881;48.522;7.682;2024-03-23T06:22:28;9.40;99.90
11650;DHT22;5881;48.522;7.682;2024-03-23T06:24:54;9.40;99.90
11650;DHT22;5881;48.522;7.682;2024-03-23T06:27:20;9.40;99.90
11650;DHT22;5881;48.522;7.682;2024-03-23T06:29:45;9.40;99.90
11650;DHT22;5881;48.522;7.682;2024-03-23T06:32:11;9.40;99.90
11650;DHT22;5881;48.522;7.682;2024-03-23T06:34:44;9.40;99.90
11650;DHT22;5881;48.522;7.682;2024-03-23T06:37:10;9.40;99.90
11650;DHT22;5881;48.522;7.682;2024-03-23T06:39:37;9.30;99.90
11650;DHT22;5881;48.522;7.682;2024-03-23T06:42:02;9.30;95.90
11650;DHT22;5881;48.522;7.682;2024-03-23T06:44:28;9.10;99.70
11650;DHT22;5881;48.522;7.682;2024-03-23T06:46:54;9.00;99.90
11650;DHT22;5881;48.522;7.682;2024-03-23T06:49:20;8.90;99.90
11650;DHT22;5881;48.522;7.682;2024-03-23T06:51:46;8.90;99.90
11650;DHT22;5881;48.522;7.682;2024-03-23T06:54:12;8.90;99.90
11650;DHT22;5881;48.522;7.682;2024-03-23T06:56:38;9.00;99.90
11650;DHT22;5881;48.522;7.682;2024-03-23T06:59:03;9.20;95.90
11650;DHT22;5881;48.522;7.682;2024-03-23T07:01:29;9.60;77.20
11650;DHT22;5881;48.522;7.682;2024-03-23T07:03:55;9.50;40.40
11650;DHT22;5881;48.522;7.682;2024-03-23T07:06:21;10.30;24.90
11650;DHT22;5881;48.522;7.682;2024-03-23T07:08:47;10.40;9.00
11650;DHT22;5881;48.522;7.682;2024-03-23T07:11:18;9.80;11.90
11650;DHT22;5881;48.522;7.682;2024-03-23T07:13:43;9.60;14.80
11650;DHT22;5881;48.522;7.682;2024-03-23T07:16:09;9.80;18.20
11650;DHT22;5881;48.522;7.682;2024-03-23T07:18:34;10.40;1.30
11650;DHT22;5881;48.522;7.682;2024-03-23T07:21:00;12.50;1.00
11650;DHT22;5881;48.522;7.682;2024-03-23T07:23:26;13.60;1.00
11650;DHT22;5881;48.522;7.682;2024-03-23T07:26:03;14.40;1.00
11650;DHT22;5881;48.522;7.682;2024-03-23T07:28:30;12.10;1.00
11650;DHT22;5881;48.522;7.682;2024-03-23T07:31:08;11.00;1.00
11650;DHT22;5881;48.522;7.682;2024-03-23T07:33:35;12.80;1.00
11650;DHT22;5881;48.522;7.682;2024-03-23T07:36:01;12.10;1.00
11650;DHT22;5881;48.522;7.682;2024-03-23T07:38:28;14.20;1.00
11650;DHT22;5881;48.522;7.682;2024-03-23T07:41:11;13.00;1.00
11650;DHT22;5881;48.522;7.682;2024-03-23T07:43:40;13.80;1.00
11650;DHT22;5881;48.522;7.682;2024-03-23T07:46:06;13.60;1.00
11650;DHT22;5881;48.522;7.682;2024-03-23T07:48:32;13.10;1.00
11650;DHT22;5881;48.522;7.682;2024-03-23T07:51:02;11.40;1.00
11650;DHT22;5881;48.522;7.682;2024-03-23T07:53:28;11.20;1.00
11650;DHT22;5881;48.522;7.682;2024-03-23T07:55:55;12.30;1.00
11650;DHT22;5881;48.522;7.682;2024-03-23T07:58:21;11.80;1.00
11650;DHT22;5881;48.522;7.682;2024-03-23T08:00:47;13.50;1.00
11650;DHT22;5881;48.522;7.682;2024-03-23T08:03:12;14.00;1.00
11650;DHT22;5881;48.522;7.682;2024-03-23T08:05:38;15.10;1.00
11650;DHT22;5881;48.522;7.682;2024-03-23T08:08:04;14.40;1.00
11650;DHT22;5881;48.522;7.682;2024-03-23T08:10:29;15.50;1.00
11650;DHT22;5881;48.522;7.682;2024-03-23T08:12:55;15.90;1.00
11650;DHT22;5881;48.522;7.682;2024-03-23T08:15:20;16.70;1.00
11650;DHT22;5881;48.522;7.682;2024-03-23T08:17:46;15.50;1.00
11650;DHT22;5881;48.522;7.682;2024-03-23T08:20:12;15.30;1.00
11650;DHT22;5881;48.522;7.682;2024-03-23T08:22:37;14.50;1.00
11650;DHT22;5881;48.522;7.682;2024-03-23T08:25:03;13.90;1.00
11650;DHT22;5881;48.522;7.682;2024-03-23T08:27:29;12.80;1.00
11650;DHT22;5881;48.522;7.682;2024-03-23T08:29:54;12.20;1.00
11650;DHT22;5881;48.522;7.682;2024-03-23T08:32:20;11.80;1.00
11650;DHT22;5881;48.522;7.682;2024-03-23T08:34:45;11.30;1.00
11650;DHT22;5881;48.522;7.682;2024-03-23T08:37:11;11.20;1.00
11650;DHT22;5881;48.522;7.682;2024-03-23T08:39:37;11.00;1.00
11650;DHT22;5881;48.522;7.682;2024-03-23T08:42:02;11.40;1.00
11650;DHT22;5881;48.522;7.682;2024-03-23T08:44:28;12.60;1.00
11650;DHT22;5881;48.522;7.682;2024-03-23T08:46:56;12.70;1.00
11650;DHT22;5881;48.522;7.682;2024-03-23T08:49:21;14.30;1.00
11650;DHT22;5881;48.522;7.682;2024-03-23T08:51:53;14.40;1.00
11650;DHT22;5881;48.522;7.682;2024-03-23T08:54:20;14.30;1.00
11650;DHT22;5881;48.522;7.682;2024-03-23T08:56:47;15.30;1.00
11650;DHT22;5881;48.522;7.682;2024-03-23T08:59:13;15.40;1.00
11650;DHT22;5881;48.522;7.682;2024-03-23T09:01:38;14.30;1.00
11650;DHT22;5881;48.522;7.682;2024-03-23T09:04:04;14.80;1.00
11650;DHT22;5881;48.522;7.682;2024-03-23T09:06:29;15.90;1.00
11650;DHT22;5881;48.522;7.682;2024-03-23T09:08:55;15.80;1.00
11650;DHT22;5881;48.522;7.682;2024-03-23T09:11:21;17.90;1.00
11650;DHT22;5881;48.522;7.682;2024-03-23T09:13:46;17.60;1.00
11650;DHT22;5881;48.522;7.682;2024-03-23T09:16:12;18.00;1.00
11650;DHT22;5881;48.522;7.682;2024-03-23T09:18:38;16.80;1.00
11650;DHT22;5881;48.522;7.682;2024-03-23T09:21:06;17.70;1.00
11650;DHT22;5881;48.522;7.682;2024-03-23T09:23:36;16.20;1.00
11650;DHT22;5881;48.522;7.682;2024-03-23T09:26:05;15.10;1.00
11650;DHT22;5881;48.522;7.682;2024-03-23T09:28:33;14.80;1.00
11650;DHT22;5881;48.522;7.682;2024-03-23T09:31:05;14.40;1.00
11650;DHT22;5881;48.522;7.682;2024-03-23T09:33:31;14.00;1.00
11650;DHT22;5881;48.522;7.682;2024-03-23T09:35:57;14.60;1.00
11650;DHT22;5881;48.522;7.682;2024-03-23T09:38:23;13.20;1.00
11650;DHT22;5881;48.522;7.682;2024-03-23T09:40:52;10.90;1.00
11650;DHT22;5881;48.522;7.682;2024-03-23T09:43:19;10.00;1.00
11650;DHT22;5881;48.522;7.682;2024-03-23T09:45:45;9.40;1.00
11650;DHT22;5881;48.522;7.682;2024-03-23T09:48:11;9.50;1.00
11650;DHT22;5881;48.522;7.682;2024-03-23T09:50:38;9.30;1.00
11650;DHT22;5881;48.522;7.682;2024-03-23T09:53:07;9.00;1.00
11650;DHT22;5881;48.522;7.682;2024-03-23T09:55:33;9.00;1.00
11650;DHT22;5881;48.522;7.682;2024-03-23T09:58:00;8.90;1.00
11650;DHT22;5881;48.522;7.682;2024-03-23T10:00:26;8.80;1.00
11650;DHT22;5881;48.522;7.682;2024-03-23T10:02:51;8.80;1.00
11650;DHT22;5881;48.522;7.682;2024-03-23T10:05:21;8.90;1.00
11650;DHT22;5881;48.522;7.682;2024-03-23T10:07:51;8.70;1.00
11650;DHT22;5881;48.522;7.682;2024-03-23T10:10:17;8.70;1.00
11650;DHT22;5881;48.522;7.682;2024-03-23T10:12:48;8.50;1.00
11650;DHT22;5881;48.522;7.682;2024-03-23T10:15:24;8.30;1.00
11650;DHT22;5881;48.522;7.682;2024-03-23T10:17:50;8.40;1.00
11650;DHT22;5881;48.522;7.682;2024-03-23T10:20:21;8.50;12.70
11650;DHT22;5881;48.522;7.682;2024-03-23T10:22:50;8.90;1.00
11650;DHT22;5881;48.522;7.682;2024-03-23T10:25:23;9.40;1.00
11650;DHT22;5881;48.522;7.682;2024-03-23T10:28:00;9.80;1.00
11650;DHT22;5881;48.522;7.682;2024-03-23T10:30:27;9.60;1.00
11650;DHT22;5881;48.522;7.682;2024-03-23T10:33:07;10.00;1.00
11650;DHT22;5881;48.522;7.682;2024-03-23T10:35:32;10.20;1.00
11650;DHT22;5881;48.522;7.682;2024-03-23T10:37:58;9.90;1.00
11650;DHT22;5881;48.522;7.682;2024-03-23T10:40:25;9.80;1.00
11650;DHT22;5881;48.522;7.682;2024-03-23T10:42:52;9.80;1.00
11650;DHT22;5881;48.522;7.682;2024-03-23T10:45:18;9.40;1.00
11650;DHT22;5881;48.522;7.682;2024-03-23T10:47:43;9.10;1.00
11650;DHT22;5881;48.522;7.682;2024-03-23T10:50:09;8.90;1.00
11650;DHT22;5881;48.522;7.682;2024-03-23T10:52:35;9.00;1.00
11650;DHT22;5881;48.522;7.682;2024-03-23T10:55:05;8.90;1.00
11650;DHT22;5881;48.522;7.682;2024-03-23T11:00:06;9.90;1.00
11650;DHT22;5881;48.522;7.682;2024-03-23T11:02:32;11.60;1.00
11650;DHT22;5881;48.522;7.682;2024-03-23T11:04:57;13.60;1.00
11650;DHT22;5881;48.522;7.682;2024-03-23T11:09:55;13.20;1.00
11650;DHT22;5881;48.522;7.682;2024-03-23T11:12:25;12.70;1.00
11650;DHT22;5881;48.522;7.682;2024-03-23T11:15:11;11.90;1.00
11650;DHT22;5881;48.522;7.682;2024-03-23T11:17:40;11.50;1.00
11650;DHT22;5881;48.522;7.682;2024-03-23T11:20:07;11.70;1.00
11650;DHT22;5881;48.522;7.682;2024-03-23T11:25:19;14.10;1.00
11650;DHT22;5881;48.522;7.682;2024-03-23T11:27:53;15.00;1.00
11650;DHT22;5881;48.522;7.682;2024-03-23T11:30:21;15.80;1.00
11650;DHT22;5881;48.522;7.682;2024-03-23T11:32:52;15.90;1.00
11650;DHT22;5881;48.522;7.682;2024-03-23T11:35:32;15.60;1.00
11650;DHT22;5881;48.522;7.682;2024-03-23T11:38:09;15.70;1.00
11650;DHT22;5881;48.522;7.682;2024-03-23T11:40:36;15.20;1.00
11650;DHT22;5881;48.522;7.682;2024-03-23T11:43:04;14.60;1.00
11650;DHT22;5881;48.522;7.682;2024-03-23T11:45:38;14.00;1.00
11650;DHT22;5881;48.522;7.682;2024-03-23T11:48:16;14.10;1.00
11650;DHT22;5881;48.522;7.682;2024-03-23T11:50:46;13.50;1.00
11650;DHT22;5881;48.522;7.682;2024-03-23T11:53:19;13.30;1.00
11650;DHT22;5881;48.522;7.682;2024-03-23T11:58:20;13.90;1.00
11650;DHT22;5881;48.522;7.682;2024-03-23T12:00:59;14.20;1.00
11650;DHT22;5881;48.522;7.682;2024-03-23T12:03:26;14.50;1.00
11650;DHT22;5881;48.522;7.682;2024-03-23T12:05:54;14.70;1.00
11650;DHT22;5881;48.522;7.682;2024-03-23T12:08:31;14.70;1.00
11650;DHT22;5881;48.522;7.682;2024-03-23T12:11:13;14.70;1.00
11650;DHT22;5881;48.522;7.682;2024-03-23T12:13:41;14.70;1.00
11650;DHT22;5881;48.522;7.682;2024-03-23T12:16:13;15.10;1.00
11650;DHT22;5881;48.522;7.682;2024-03-23T12:18:40;14.90;1.00
11650;DHT22;5881;48.522;7.682;2024-03-23T12:21:06;15.30;1.00
11650;DHT22;5881;48.522;7.682;2024-03-23T12:23:33;15.10;1.00
11650;DHT22;5881;48.522;7.682;2024-03-23T12:25:58;15.00;1.00
11650;DHT22;5881;48.522;7.682;2024-03-23T12:28:24;14.90;1.00
11650;DHT22;5881;48.522;7.682;2024-03-23T12:30:51;13.60;1.00
11650;DHT22;5881;48.522;7.682;2024-03-23T12:33:17;11.90;1.00
11650;DHT22;5881;48.522;7.682;2024-03-23T12:35:43;11.10;1.00
11650;DHT22;5881;48.522;7.682;2024-03-23T12:38:09;11.40;1.00
11650;DHT22;5881;48.522;7.682;2024-03-23T12:40:34;12.20;1.00
11650;DHT22;5881;48.522;7.682;2024-03-23T12:43:00;12.60;1.00
11650;DHT22;5881;48.522;7.682;2024-03-23T12:45:25;13.10;1.00
11650;DHT22;5881;48.522;7.682;2024-03-23T12:47:52;13.40;1.00
11650;DHT22;5881;48.522;7.682;2024-03-23T12:50:19;13.10;1.00
11650;DHT22;5881;48.522;7.682;2024-03-23T12:52:45;13.60;1.00
11650;DHT22;5881;48.522;7.682;2024-03-23T12:55:11;13.60;1.00
11650;DHT22;5881;48.522;7.682;2024-03-23T12:57:36;13.90;1.00
11650;DHT22;5881;48.522;7.682;2024-03-23T13:00:03;14.00;1.00
11650;DHT22;5881;48.522;7.682;2024-03-23T13:02:29;14.00;1.00
11650;DHT22;5881;48.522;7.682;2024-03-23T13:04:55;13.90;1.00
11650;DHT22;5881;48.522;7.682;2024-03-23T13:07:22;13.30;1.00
11650;DHT22;5881;48.522;7.682;2024-03-23T13:09:52;13.00;1.00
11650;DHT22;5881;48.522;7.682;2024-03-23T13:12:18;13.00;1.00
11650;DHT22;5881;48.522;7.682;2024-03-23T13:14:44;12.60;1.00
11650;DHT22;5881;48.522;7.682;2024-03-23T13:17:10;11.90;1.00
11650;DHT22;5881;48.522;7.682;2024-03-23T13:19:36;11.90;1.00
11650;DHT22;5881;48.522;7.682;2024-03-23T13:22:02;10.90;1.00
11650;DHT22;5881;48.522;7.682;2024-03-23T13:24:28;10.80;1.00
11650;DHT22;5881;48.522;7.682;2024-03-23T13:26:55;11.20;1.00
11650;DHT22;5881;48.522;7.682;2024-03-23T13:29:21;11.70;1.00
11650;DHT22;5881;48.522;7.682;2024-03-23T13:31:48;11.90;1.00
11650;DHT22;5881;48.522;7.682;2024-03-23T13:34:14;12.10;1.00
11650;DHT22;5881;48.522;7.682;2024-03-23T13:36:47;12.70;1.00
11650;DHT22;5881;48.522;7.682;2024-03-23T13:39:14;12.30;1.00
11650;DHT22;5881;48.522;7.682;2024-03-23T13:41:45;12.00;1.00
11650;DHT22;5881;48.522;7.682;2024-03-23T13:44:13;11.80;1.00
11650;DHT22;5881;48.522;7.682;2024-03-23T13:46:40;11.70;1.00
11650;DHT22;5881;48.522;7.682;2024-03-23T13:49:18;12.10;1.00
11650;DHT22;5881;48.522;7.682;2024-03-23T13:51:48;12.10;1.00
11650;DHT22;5881;48.522;7.682;2024-03-23T13:54:14;11.80;1.00
11650;DHT22;5881;48.522;7.682;2024-03-23T13:56:40;11.50;1.00
11650;DHT22;5881;48.522;7.682;2024-03-23T13:59:05;11.60;1.00
11650;DHT22;5881;48.522;7.682;2024-03-23T14:01:31;11.60;1.00
11650;DHT22;5881;48.522;7.682;2024-03-23T14:03:57;11.50;1.00
11650;DHT22;5881;48.522;7.682;2024-03-23T14:06:22;11.50;1.00
11650;DHT22;5881;48.522;7.682;2024-03-23T14:08:49;11.70;1.00
11650;DHT22;5881;48.522;7.682;2024-03-23T14:11:18;11.70;1.00
11650;DHT22;5881;48.522;7.682;2024-03-23T14:13:43;11.70;1.00
11650;DHT22;5881;48.522;7.682;2024-03-23T14:16:09;11.50;1.00
11650;DHT22;5881;48.522;7.682;2024-03-23T14:18:35;11.20;1.00
11650;DHT22;5881;48.522;7.682;2024-03-23T14:21:01;10.40;1.00
11650;DHT22;5881;48.522;7.682;2024-03-23T14:23:27;10.20;1.00
11650;DHT22;5881;48.522;7.682;2024-03-23T14:25:55;10.70;1.00
11650;DHT22;5881;48.522;7.682;2024-03-23T14:28:22;11.50;1.00
11650;DHT22;5881;48.522;7.682;2024-03-23T14:30:48;11.70;1.00
11650;DHT22;5881;48.522;7.682;2024-03-23T14:33:15;11.80;1.00
11650;DHT22;5881;48.522;7.682;2024-03-23T14:35:41;11.70;1.00
11650;DHT22;5881;48.522;7.682;2024-03-23T14:38:06;11.80;1.00
11650;DHT22;5881;48.522;7.682;2024-03-23T14:40:33;11.50;1.00
11650;DHT22;5881;48.522;7.682;2024-03-23T14:42:58;11.50;1.00
11650;DHT22;5881;48.522;7.682;2024-03-23T14:45:24;11.40;1.00
11650;DHT22;5881;48.522;7.682;2024-03-23T14:47:52;10.90;1.00
11650;DHT22;5881;48.522;7.682;2024-03-23T14:50:18;10.90;1.00
11650;DHT22;5881;48.522;7.682;2024-03-23T14:52:45;11.10;1.00
11650;DHT22;5881;48.522;7.682;2024-03-23T14:55:11;11.10;1.00
11650;DHT22;5881;48.522;7.682;2024-03-23T14:57:37;11.10;1.00
11650;DHT22;5881;48.522;7.682;2024-03-23T15:00:08;11.30;1.00
11650;DHT22;5881;48.522;7.682;2024-03-23T15:02:36;11.40;1.00
11650;DHT22;5881;48.522;7.682;2024-03-23T15:05:02;11.40;1.00
11650;DHT22;5881;48.522;7.682;2024-03-23T15:07:30;11.40;1.00
11650;DHT22;5881;48.522;7.682;2024-03-23T15:09:56;11.30;1.00
11650;DHT22;5881;48.522;7.682;2024-03-23T15:12:21;11.20;1.00
11650;DHT22;5881;48.522;7.682;2024-03-23T15:14:47;11.30;1.00
11650;DHT22;5881;48.522;7.682;2024-03-23T15:17:13;11.30;1.00
11650;DHT22;5881;48.522;7.682;2024-03-23T15:19:38;10.90;1.00
11650;DHT22;5881;48.522;7.682;2024-03-23T15:22:04;10.90;1.00
11650;DHT22;5881;48.522;7.682;2024-03-23T15:24:30;11.00;1.00
11650;DHT22;5881;48.522;7.682;2024-03-23T15:26:57;10.90;1.00
11650;DHT22;5881;48.522;7.682;2024-03-23T15:29:22;11.10;1.00
11650;DHT22;5881;48.522;7.682;2024-03-23T15:31:48;11.30;1.00
11650;DHT22;5881;48.522;7.682;2024-03-23T15:34:18;11.60;1.00
11650;DHT22;5881;48.522;7.682;2024-03-23T15:36:47;11.20;1.00
11650;DHT22;5881;48.522;7.682;2024-03-23T15:39:14;10.90;1.00
11650;DHT22;5881;48.522;7.682;2024-03-23T15:41:40;10.90;1.00
11650;DHT22;5881;48.522;7.682;2024-03-23T15:44:06;10.70;1.00
11650;DHT22;5881;48.522;7.682;2024-03-23T15:46:32;10.60;1.00
11650;DHT22;5881;48.522;7.682;2024-03-23T15:48:57;10.30;1.00
11650;DHT22;5881;48.522;7.682;2024-03-23T15:51:23;10.30;1.00
11650;DHT22;5881;48.522;7.682;2024-03-23T15:53:49;10.20;1.00
11650;DHT22;5881;48.522;7.682;2024-03-23T15:56:17;10.30;1.00
11650;DHT22;5881;48.522;7.682;2024-03-23T15:58:43;10.20;1.00
11650;DHT22;5881;48.522;7.682;2024-03-23T16:01:09;10.20;1.00
11650;DHT22;5881;48.522;7.682;2024-03-23T16:03:36;9.60;1.00
11650;DHT22;5881;48.522;7.682;2024-03-23T16:06:04;9.30;1.00
11650;DHT22;5881;48.522;7.682;2024-03-23T16:08:30;9.00;1.00
11650;DHT22;5881;48.522;7.682;2024-03-23T16:11:00;8.90;1.00
11650;DHT22;5881;48.522;7.682;2024-03-23T16:13:26;8.70;1.00
11650;DHT22;5881;48.522;7.682;2024-03-23T16:16:00;8.60;1.00
11650;DHT22;5881;48.522;7.682;2024-03-23T16:18:28;8.60;1.00
11650;DHT22;5881;48.522;7.682;2024-03-23T16:20:59;8.80;1.00
11650;DHT22;5881;48.522;7.682;2024-03-23T16:23:25;8.90;1.00
11650;DHT22;5881;48.522;7.682;2024-03-23T16:25:52;9.00;1.00
11650;DHT22;5881;48.522;7.682;2024-03-23T16:28:29;9.20;1.00
11650;DHT22;5881;48.522;7.682;2024-03-23T16:30:56;9.40;1.00
11650;DHT22;5881;48.522;7.682;2024-03-23T16:33:22;9.60;1.00
11650;DHT22;5881;48.522;7.682;2024-03-23T16:35:59;9.30;1.00
11650;DHT22;5881;48.522;7.682;2024-03-23T16:38:25;9.20;1.00
11650;DHT22;5881;48.522;7.682;2024-03-23T16:40:58;8.80;1.00
11650;DHT22;5881;48.522;7.682;2024-03-23T16:43:25;8.80;1.00
11650;DHT22;5881;48.522;7.682;2024-03-23T16:48:21;8.60;1.00
11650;DHT22;5881;48.522;7.682;2024-03-23T16:50:47;8.60;1.00
11650;DHT22;5881;48.522;7.682;2024-03-23T16:53:13;8.60;1.00
11650;DHT22;5881;48.522;7.682;2024-03-23T16:55:38;8.70;1.00
11650;DHT22;5881;48.522;7.682;2024-03-23T16:58:04;8.80;1.00
11650;DHT22;5881;48.522;7.682;2024-03-23T17:00:30;8.70;1.00
11650;DHT22;5881;48.522;7.682;2024-03-23T17:02:56;8.60;1.00
11650;DHT22;5881;48.522;7.682;2024-03-23T17:05:21;8.50;1.00
11650;DHT22;5881;48.522;7.682;2024-03-23T17:07:48;8.30;1.00